createdAt,value
2023-03-19T00:00:14.450Z,96.47
2023-03-19T00:01:14.445Z,96.32
2023-03-19T00:02:18.045Z,96.32
2023-03-19T00:03:14.568Z,96.01
2023-03-19T00:04:14.432Z,96.16
2023-03-19T00:05:14.430Z,95.86
2023-03-19T00:06:14.423Z,95.70
2023-03-19T00:07:14.424Z,95.61
2023-03-19T00:08:14.417Z,95.61
2023-03-19T00:09:14.437Z,95.95
2023-03-19T00:10:14.426Z,95.86
2023-03-19T00:11:14.408Z,96.32
2023-03-19T00:12:14.410Z,96.12
2023-03-19T00:13:14.404Z,95.65
2023-03-19T00:14:14.403Z,95.91
2023-03-19T00:15:14.786Z,96.01
2023-03-19T00:16:14.431Z,95.86
2023-03-19T00:17:14.388Z,95.40
2023-03-19T00:18:14.397Z,96.16
2023-03-19T00:19:14.380Z,95.86
2023-03-19T00:20:14.378Z,95.75
2023-03-19T00:21:14.376Z,95.86
2023-03-19T00:22:14.372Z,95.75
2023-03-19T00:23:14.365Z,96.37
2023-03-19T00:24:14.366Z,96.16
2023-03-19T00:25:14.489Z,95.86
2023-03-19T00:26:14.354Z,95.54
2023-03-19T00:27:14.353Z,95.54
2023-03-19T00:28:14.387Z,95.65
2023-03-19T00:29:14.346Z,95.86
2023-03-19T00:30:14.345Z,95.75
2023-03-19T00:31:14.420Z,95.54
2023-03-19T00:32:14.335Z,95.65
2023-03-19T00:33:14.360Z,95.75
2023-03-19T00:34:14.330Z,95.49
2023-03-19T00:35:14.319Z,94.52
2023-03-19T00:36:14.391Z,93.85
2023-03-19T00:37:14.317Z,92.51
2023-03-19T00:38:14.346Z,92.51
2023-03-19T00:39:14.312Z,91.94
2023-03-19T00:40:14.306Z,92.25
2023-03-19T00:41:14.318Z,91.67
2023-03-19T00:42:14.299Z,92.70
2023-03-19T00:43:14.290Z,92.74
2023-03-19T00:44:14.290Z,92.95
2023-03-19T00:45:14.299Z,93.46
2023-03-19T00:46:14.355Z,94.08
2023-03-19T00:47:14.283Z,94.18
2023-03-19T00:48:14.274Z,94.59
2023-03-19T00:49:14.272Z,95.42
2023-03-19T00:50:14.270Z,95.62
2023-03-19T00:51:14.618Z,94.90
2023-03-19T00:52:14.259Z,95.01
2023-03-19T00:53:14.257Z,94.90
2023-03-19T00:54:14.257Z,94.43
2023-03-19T00:55:14.247Z,94.02
2023-03-19T00:56:14.266Z,93.10
2023-03-19T00:57:14.269Z,92.52
2023-03-19T00:58:14.236Z,92.32
2023-03-19T00:59:14.238Z,92.63
2023-03-19T01:00:53.830Z,92.63
2023-03-19T01:01:53.721Z,93.04
2023-03-19T01:02:53.715Z,93.70
2023-03-19T01:03:53.723Z,93.96
2023-03-19T01:04:53.709Z,94.07
2023-03-19T01:05:53.709Z,94.48
2023-03-19T01:06:53.702Z,94.89
2023-03-19T01:07:53.694Z,95.71
2023-03-19T01:08:53.689Z,95.30
2023-03-19T01:09:53.685Z,95.86
2023-03-19T01:10:53.687Z,96.37
2023-03-19T01:11:53.679Z,96.84
2023-03-19T01:12:53.692Z,97.30
2023-03-19T01:13:53.675Z,96.73
2023-03-19T01:14:53.665Z,97.05
2023-03-19T01:15:53.666Z,97.36
2023-03-19T01:16:53.658Z,97.05
2023-03-19T01:17:53.662Z,96.94
2023-03-19T01:18:53.667Z,97.45
2023-03-19T01:19:53.645Z,96.94
2023-03-19T01:20:53.642Z,97.05
2023-03-19T01:21:53.638Z,97.05
2023-03-19T01:22:53.634Z,97.25
2023-03-19T01:23:53.632Z,96.43
2023-03-19T01:24:53.626Z,95.61
2023-03-19T01:25:53.624Z,95.20
2023-03-19T01:26:53.633Z,94.52
2023-03-19T01:27:53.614Z,94.83
2023-03-19T01:28:53.644Z,95.03
2023-03-19T01:29:53.604Z,94.56
2023-03-19T01:30:53.637Z,94.26
2023-03-19T01:31:53.600Z,94.36
2023-03-19T01:32:53.614Z,94.67
2023-03-19T01:33:53.589Z,94.77
2023-03-19T01:34:53.589Z,95.70
2023-03-19T01:35:53.599Z,95.45
2023-03-19T01:36:53.578Z,95.70
2023-03-19T01:37:53.571Z,95.28
2023-03-19T01:38:53.571Z,94.15
2023-03-19T01:39:53.569Z,94.05
2023-03-19T01:40:53.565Z,93.74
2023-03-19T01:41:53.557Z,94.30
2023-03-19T01:42:53.560Z,94.40
2023-03-19T01:43:53.552Z,94.20
2023-03-19T01:44:53.570Z,94.51
2023-03-19T01:45:53.540Z,94.40
2023-03-19T01:46:53.544Z,95.02
2023-03-19T01:47:53.530Z,95.74
2023-03-19T01:48:53.533Z,95.95
2023-03-19T01:49:53.525Z,95.64
2023-03-19T01:50:53.520Z,95.90
2023-03-19T01:51:53.520Z,95.90
2023-03-19T01:52:53.517Z,96.31
2023-03-19T01:53:53.509Z,96.42
2023-03-19T01:54:53.507Z,96.17
2023-03-19T01:55:53.496Z,95.86
2023-03-19T01:56:53.496Z,96.11
2023-03-19T01:57:53.491Z,95.55
2023-03-19T01:58:53.485Z,95.03
2023-03-19T01:59:53.478Z,94.52
2023-03-19T02:00:53.502Z,93.84
2023-03-19T02:01:53.646Z,92.82
2023-03-19T02:02:53.486Z,92.61
2023-03-19T02:03:53.468Z,92.50
2023-03-19T02:04:53.544Z,92.34
2023-03-19T02:05:53.464Z,92.65
2023-03-19T02:06:53.455Z,92.24
2023-03-19T02:07:53.448Z,93.11
2023-03-19T02:08:53.444Z,93.52
2023-03-19T02:09:53.443Z,94.28
2023-03-19T02:10:53.438Z,94.38
2023-03-19T02:11:53.432Z,94.45
2023-03-19T02:12:53.458Z,94.65
2023-03-19T02:13:53.439Z,95.10
2023-03-19T02:14:53.420Z,95.58
2023-03-19T02:15:53.455Z,95.93
2023-03-19T02:16:53.434Z,95.73
2023-03-19T02:17:53.406Z,95.93
2023-03-19T02:18:53.400Z,96.20
2023-03-19T02:19:53.398Z,96.09
2023-03-19T02:20:53.393Z,96.55
2023-03-19T02:21:53.389Z,96.41
2023-03-19T02:22:53.424Z,96.55
2023-03-19T02:23:53.398Z,96.20
2023-03-19T02:24:53.376Z,96.66
2023-03-19T02:25:53.369Z,97.23
2023-03-19T02:26:53.366Z,96.81
2023-03-19T02:27:53.360Z,97.23
2023-03-19T02:28:53.366Z,97.02
2023-03-19T02:29:53.356Z,97.33
2023-03-19T02:30:53.347Z,97.90
2023-03-19T02:31:53.345Z,98.11
2023-03-19T02:32:53.420Z,98.11
2023-03-19T02:33:53.334Z,98.11
2023-03-19T02:34:53.332Z,98.11
2023-03-19T02:35:53.404Z,98.16
2023-03-19T02:36:53.331Z,98.06
2023-03-19T02:37:53.317Z,98.06
2023-03-19T02:38:53.313Z,97.86
2023-03-19T02:39:53.326Z,98.06
2023-03-19T02:40:53.309Z,98.06
2023-03-19T02:41:53.309Z,97.86
2023-03-19T02:43:53.292Z,98.37
2023-03-19T02:45:53.282Z,98.47
2023-03-19T02:46:53.389Z,98.58
2023-03-19T02:47:53.271Z,98.68
2023-03-19T02:48:53.295Z,98.47
2023-03-19T02:49:53.265Z,98.47
2023-03-19T02:50:54.042Z,98.33
2023-03-19T02:51:53.259Z,98.12
2023-03-19T02:52:53.455Z,98.33
2023-03-19T02:53:53.248Z,98.22
2023-03-19T02:54:53.243Z,98.22
2023-03-19T02:55:53.251Z,98.22
2023-03-19T02:56:53.240Z,98.12
2023-03-19T02:57:53.232Z,98.38
2023-03-19T02:58:53.230Z,98.43
2023-03-19T02:59:53.235Z,98.49
2023-03-19T03:00:53.272Z,98.49
2023-03-19T03:01:53.261Z,98.38
2023-03-19T03:02:53.221Z,98.38
2023-03-19T03:03:53.213Z,98.59
2023-03-19T03:04:53.226Z,98.07
2023-03-19T03:05:53.203Z,97.97
2023-03-19T03:06:53.207Z,97.97
2023-03-19T03:07:53.196Z,97.77
2023-03-19T03:08:53.202Z,97.56
2023-03-19T03:09:53.191Z,98.28
2023-03-19T03:10:53.191Z,97.56
2023-03-19T03:11:53.179Z,97.97
2023-03-19T03:12:53.182Z,97.87
2023-03-19T03:13:53.184Z,97.87
2023-03-19T03:14:53.172Z,97.87
2023-03-19T03:15:53.163Z,97.56
2023-03-19T03:16:53.164Z,97.66
2023-03-19T03:17:53.159Z,97.56
2023-03-19T03:19:53.149Z,98.07
2023-03-19T03:20:53.160Z,97.97
2023-03-19T03:21:53.146Z,98.38
2023-03-19T03:22:53.140Z,98.44
2023-03-19T03:23:53.133Z,98.24
2023-03-19T03:24:53.126Z,97.82
2023-03-19T03:25:53.130Z,98.28
2023-03-19T03:26:53.118Z,98.18
2023-03-19T03:27:53.132Z,98.65
2023-03-19T03:28:53.112Z,98.54
2023-03-19T03:29:53.111Z,98.65
2023-03-19T03:30:53.104Z,98.75
2023-03-19T03:31:53.170Z,98.54
2023-03-19T03:32:53.184Z,98.75
2023-03-19T03:33:53.104Z,98.24
2023-03-19T03:34:53.087Z,98.44
2023-03-19T03:35:53.127Z,98.44
2023-03-19T03:36:53.103Z,98.65
2023-03-19T03:37:53.477Z,98.75
2023-03-19T03:38:53.073Z,98.54
2023-03-19T03:39:53.073Z,98.54
2023-03-19T03:40:53.064Z,98.54
2023-03-19T03:41:53.061Z,97.92
2023-03-19T03:42:53.058Z,98.03
2023-03-19T03:43:53.060Z,98.13
2023-03-19T03:44:53.051Z,98.24
2023-03-19T03:45:53.168Z,98.19
2023-03-19T03:46:53.040Z,98.13
2023-03-19T03:47:53.043Z,98.54
2023-03-19T03:48:53.033Z,98.19
2023-03-19T03:49:53.035Z,98.03
2023-03-19T03:50:53.038Z,98.33
2023-03-19T03:51:53.039Z,98.44
2023-03-19T03:52:53.041Z,98.39
2023-03-19T03:53:53.018Z,98.44
2023-03-19T03:54:53.008Z,98.44
2023-03-19T03:55:53.008Z,98.29
2023-03-19T03:56:53.004Z,98.39
2023-03-19T03:57:52.998Z,98.29
2023-03-19T03:58:52.995Z,98.29
2023-03-19T03:59:52.998Z,98.39
2023-03-19T04:00:52.983Z,98.29
2023-03-19T04:01:53.051Z,98.29
2023-03-19T04:02:53.002Z,98.29
2023-03-19T04:03:52.997Z,98.25
2023-03-19T04:04:52.976Z,98.29
2023-03-19T04:05:52.995Z,98.29
2023-03-19T04:06:52.957Z,98.50
2023-03-19T04:07:52.970Z,98.29
2023-03-19T04:08:52.972Z,98.29
2023-03-19T04:09:52.948Z,98.39
2023-03-19T04:10:52.948Z,98.35
2023-03-19T04:11:52.957Z,98.25
2023-03-19T04:12:52.945Z,98.39
2023-03-19T04:13:52.942Z,98.39
2023-03-19T04:14:52.927Z,98.29
2023-03-19T04:15:52.922Z,98.19
2023-03-19T04:16:53.057Z,98.19
2023-03-19T04:17:52.916Z,98.25
2023-03-19T04:18:52.908Z,98.25
2023-03-19T04:19:52.911Z,97.94
2023-03-19T04:20:52.902Z,98.04
2023-03-19T04:21:52.912Z,98.45
2023-03-19T04:22:52.896Z,98.35
2023-03-19T04:23:52.892Z,97.94
2023-03-19T04:24:52.910Z,98.14
2023-03-19T04:25:52.918Z,98.04
2023-03-19T04:26:52.883Z,98.14
2023-03-19T04:27:52.894Z,97.94
2023-03-19T04:28:52.871Z,97.94
2023-03-19T04:29:52.873Z,98.04
2023-03-19T04:30:52.896Z,98.04
2023-03-19T04:31:52.860Z,97.99
2023-03-19T04:32:52.887Z,98.04
2023-03-19T04:33:52.852Z,97.83
2023-03-19T04:34:52.854Z,98.04
2023-03-19T04:35:52.902Z,97.99
2023-03-19T04:36:52.845Z,97.89
2023-03-19T04:37:52.839Z,97.89
2023-03-19T04:38:52.833Z,98.10
2023-03-19T04:39:52.829Z,97.83
2023-03-19T04:40:52.840Z,98.20
2023-03-19T04:41:52.821Z,97.99
2023-03-19T04:42:52.816Z,98.20
2023-03-19T04:43:52.813Z,98.20
2023-03-19T04:44:52.810Z,97.79
2023-03-19T04:45:52.875Z,97.99
2023-03-19T04:46:52.799Z,98.10
2023-03-19T04:47:52.807Z,98.71
2023-03-19T04:48:52.796Z,98.10
2023-03-19T04:49:52.797Z,98.45
2023-03-19T04:50:52.783Z,97.89
2023-03-19T04:51:52.779Z,97.79
2023-03-19T04:52:52.775Z,98.30
2023-03-19T04:53:52.775Z,98.51
2023-03-19T04:54:52.788Z,98.61
2023-03-19T04:55:52.770Z,98.41
2023-03-19T04:56:52.786Z,98.51
2023-03-19T04:57:52.771Z,98.51
2023-03-19T04:58:52.751Z,98.61
2023-03-19T04:59:52.752Z,98.30
2023-03-19T05:00:52.741Z,98.41
2023-03-19T05:01:52.749Z,98.41
2023-03-19T05:02:52.754Z,97.79
2023-03-19T05:03:52.773Z,98.41
2023-03-19T05:04:52.739Z,97.79
2023-03-19T05:05:52.728Z,98.41
2023-03-19T05:06:52.722Z,98.41
2023-03-19T05:07:52.721Z,98.30
2023-03-19T05:08:52.713Z,98.41
2023-03-19T05:09:52.711Z,98.51
2023-03-19T05:10:52.705Z,98.30
2023-03-19T05:11:52.709Z,98.36
2023-03-19T05:12:52.723Z,98.10
2023-03-19T05:13:52.701Z,98.46
2023-03-19T05:14:52.694Z,98.41
2023-03-19T05:15:52.735Z,97.95
2023-03-19T05:16:52.688Z,98.41
2023-03-19T05:17:52.679Z,98.36
2023-03-19T05:18:52.881Z,98.25
2023-03-19T05:19:52.670Z,98.36
2023-03-19T05:20:52.672Z,98.25
2023-03-19T05:21:52.666Z,98.36
2023-03-19T05:22:52.665Z,98.46
2023-03-19T05:23:52.700Z,98.46
2023-03-19T05:24:52.660Z,98.46
2023-03-19T05:25:52.649Z,98.57
2023-03-19T05:26:52.647Z,98.57
2023-03-19T05:27:52.639Z,98.36
2023-03-19T05:28:52.663Z,98.57
2023-03-19T05:29:52.640Z,98.46
2023-03-19T05:30:52.680Z,98.36
2023-03-19T05:31:52.630Z,98.36
2023-03-19T05:32:52.667Z,98.36
2023-03-19T05:33:52.625Z,98.46
2023-03-19T05:34:52.618Z,98.57
2023-03-19T05:35:52.640Z,98.67
2023-03-19T05:36:52.616Z,98.36
2023-03-19T05:37:52.605Z,98.36
2023-03-19T05:38:52.615Z,98.46
2023-03-19T05:39:52.596Z,98.36
2023-03-19T05:40:52.612Z,98.36
2023-03-19T05:42:52.841Z,98.46
2023-03-19T05:43:52.584Z,98.46
2023-03-19T05:44:52.595Z,98.46
2023-03-19T05:45:52.691Z,97.85
2023-03-19T05:46:52.644Z,97.85
2023-03-19T05:47:52.565Z,97.95
2023-03-19T05:48:52.562Z,98.05
2023-03-19T05:49:52.966Z,97.85
2023-03-19T05:50:52.562Z,97.85
2023-03-19T05:51:52.567Z,98.00
2023-03-19T05:53:52.542Z,98.05
2023-03-19T05:54:52.551Z,98.36
2023-03-19T05:56:52.540Z,98.36
2023-03-19T05:57:52.544Z,97.85
2023-03-19T05:58:52.534Z,97.70
2023-03-19T06:00:52.539Z,97.54
2023-03-19T06:01:52.603Z,97.64
2023-03-19T06:02:52.532Z,97.64
2023-03-19T06:03:52.525Z,97.74
2023-03-19T06:04:52.509Z,97.85
2023-03-19T06:05:52.520Z,97.74
2023-03-19T06:07:52.488Z,97.33
2023-03-19T06:08:52.483Z,97.33
2023-03-19T06:09:52.488Z,97.08
2023-03-19T06:10:52.474Z,97.44
2023-03-19T06:11:52.473Z,97.08
2023-03-19T06:12:52.483Z,97.29
2023-03-19T06:13:52.477Z,96.88
2023-03-19T06:15:52.497Z,96.98
2023-03-19T06:18:55.055Z,96.16
2023-03-19T06:19:55.031Z,96.57
2023-03-19T06:20:55.034Z,96.47
2023-03-19T06:21:55.024Z,96.57
2023-03-19T06:23:55.420Z,96.57
2023-03-19T06:25:55.013Z,96.57
2023-03-19T06:26:55.006Z,96.37
2023-03-19T06:27:55.004Z,96.32
2023-03-19T06:28:55.004Z,96.06
2023-03-19T06:29:54.993Z,96.06
2023-03-19T06:30:54.993Z,96.47
2023-03-19T06:31:57.878Z,96.37
2023-03-19T06:32:55.062Z,96.42
2023-03-19T06:33:54.992Z,96.42
2023-03-19T06:34:55.010Z,96.01
2023-03-19T06:35:54.993Z,96.22
2023-03-19T06:36:54.973Z,96.42
2023-03-19T06:37:54.971Z,96.22
2023-03-19T06:38:54.966Z,96.57
2023-03-19T06:39:54.968Z,96.37
2023-03-19T06:40:54.958Z,96.37
2023-03-19T06:42:54.950Z,96.63
2023-03-19T06:44:54.943Z,96.22
2023-03-19T06:45:54.976Z,96.22
2023-03-19T06:46:54.936Z,96.12
2023-03-19T06:47:54.932Z,96.42
2023-03-19T06:48:54.930Z,96.42
2023-03-19T06:49:54.937Z,96.22
2023-03-19T06:50:54.958Z,96.22
2023-03-19T06:51:54.918Z,96.42
2023-03-19T06:52:54.919Z,96.32
2023-03-19T06:53:54.937Z,96.42
2023-03-19T06:54:54.911Z,96.01
2023-03-19T06:55:54.907Z,96.53
2023-03-19T06:56:54.904Z,96.53
2023-03-19T06:57:54.897Z,96.22
2023-03-19T06:58:54.913Z,96.01
2023-03-19T06:59:54.899Z,96.32
2023-03-19T07:00:54.915Z,96.22
2023-03-19T07:01:54.883Z,95.70
2023-03-19T07:02:54.880Z,95.81
2023-03-19T07:03:54.903Z,95.70
2023-03-19T07:04:54.875Z,95.61
2023-03-19T07:05:54.872Z,95.20
2023-03-19T07:06:54.901Z,95.20
2023-03-19T07:07:54.867Z,95.40
2023-03-19T07:08:54.917Z,95.20
2023-03-19T07:09:54.861Z,95.40
2023-03-19T07:10:54.849Z,95.20
2023-03-19T07:11:54.852Z,95.20
2023-03-19T07:12:54.847Z,94.58
2023-03-19T07:13:54.838Z,94.78
2023-03-19T07:14:54.836Z,94.64
2023-03-19T07:15:54.828Z,94.58
2023-03-19T07:16:54.833Z,94.89
2023-03-19T07:17:54.820Z,95.20
2023-03-19T07:18:54.818Z,95.20
2023-03-19T07:19:54.813Z,95.29
2023-03-19T07:20:54.813Z,95.40
2023-03-19T07:21:54.810Z,94.89
2023-03-19T07:22:54.837Z,94.58
2023-03-19T07:23:54.806Z,94.43
2023-03-19T07:24:54.800Z,94.23
2023-03-19T07:25:54.789Z,94.43
2023-03-19T07:26:54.793Z,94.12
2023-03-19T07:27:56.079Z,93.71
2023-03-19T07:28:54.783Z,93.71
2023-03-19T07:29:54.787Z,94.12
2023-03-19T07:30:54.793Z,94.54
2023-03-19T07:31:54.824Z,93.71
2023-03-19T07:32:54.855Z,94.12
2023-03-19T07:33:54.779Z,94.12
2023-03-19T07:34:54.769Z,94.02
2023-03-19T07:35:54.793Z,93.71
2023-03-19T07:36:54.760Z,93.71
2023-03-19T07:37:54.786Z,93.82
2023-03-19T07:38:54.765Z,94.12
2023-03-19T07:39:54.749Z,93.98
2023-03-19T07:41:01.973Z,93.98
2023-03-19T07:41:54.738Z,94.54
2023-03-19T07:42:54.930Z,94.29
2023-03-19T07:43:54.724Z,94.18
2023-03-19T07:44:54.721Z,94.23
2023-03-19T07:45:54.794Z,94.18
2023-03-19T07:46:54.714Z,94.18
2023-03-19T07:47:54.728Z,94.29
2023-03-19T07:48:54.712Z,94.39
2023-03-19T07:49:54.717Z,94.59
2023-03-19T07:50:54.704Z,94.39
2023-03-19T07:51:54.698Z,94.70
2023-03-19T07:52:54.694Z,93.98
2023-03-19T07:53:54.687Z,94.23
2023-03-19T07:54:54.703Z,94.08
2023-03-19T07:55:54.681Z,94.39
2023-03-19T07:56:54.678Z,94.49
2023-03-19T07:57:54.673Z,94.59
2023-03-19T07:58:54.680Z,94.49
2023-03-19T07:59:54.694Z,95.41
2023-03-19T08:00:54.672Z,95.10
2023-03-19T08:01:54.703Z,95.31
2023-03-19T08:02:54.656Z,95.31
2023-03-19T08:03:54.653Z,95.31
2023-03-19T08:04:54.683Z,95.41
2023-03-19T08:05:54.644Z,95.31
2023-03-19T08:06:54.644Z,95.21
2023-03-19T08:07:54.638Z,95.31
2023-03-19T08:08:54.641Z,95.21
2023-03-19T08:09:54.635Z,94.59
2023-03-19T08:10:54.649Z,94.54
2023-03-19T08:11:54.627Z,94.29
2023-03-19T08:12:54.620Z,94.29
2023-03-19T08:13:54.619Z,94.49
2023-03-19T08:14:54.613Z,94.59
2023-03-19T08:15:54.608Z,94.18
2023-03-19T08:16:54.652Z,94.80
2023-03-19T08:17:54.603Z,95.31
2023-03-19T08:18:54.609Z,94.70
2023-03-19T08:19:54.599Z,94.39
2023-03-19T08:20:54.595Z,94.49
2023-03-19T08:21:54.587Z,94.39
2023-03-19T08:22:54.587Z,94.39
2023-03-19T08:23:54.581Z,94.39
2023-03-19T08:24:54.578Z,94.39
2023-03-19T08:25:54.580Z,94.80
2023-03-19T08:26:54.597Z,95.36
2023-03-19T08:27:54.571Z,95.21
2023-03-19T08:28:54.564Z,94.59
2023-03-19T08:29:54.585Z,94.18
2023-03-19T08:30:54.601Z,94.70
2023-03-19T08:31:54.557Z,94.90
2023-03-19T08:32:54.616Z,94.49
2023-03-19T08:33:54.548Z,94.45
2023-03-19T08:34:54.548Z,94.70
2023-03-19T08:35:54.696Z,94.18
2023-03-19T08:36:54.555Z,93.67
2023-03-19T08:37:54.562Z,93.57
2023-03-19T08:38:54.531Z,93.67
2023-03-19T08:39:54.521Z,93.32
2023-03-19T08:40:54.522Z,94.14
2023-03-19T08:41:54.518Z,93.93
2023-03-19T08:42:54.883Z,94.04
2023-03-19T08:43:54.509Z,94.24
2023-03-19T08:44:54.511Z,94.51
2023-03-19T08:45:54.601Z,94.14
2023-03-19T08:46:54.709Z,94.10
2023-03-19T08:47:54.497Z,94.04
2023-03-19T08:48:54.500Z,94.14
2023-03-19T08:49:54.488Z,93.99
2023-03-19T08:50:54.487Z,94.30
2023-03-19T08:51:54.483Z,94.30
2023-03-19T08:52:54.482Z,94.40
2023-03-19T08:53:54.474Z,95.12
2023-03-19T08:54:54.478Z,95.02
2023-03-19T08:55:54.471Z,95.22
2023-03-19T08:56:54.478Z,95.12
2023-03-19T08:57:54.471Z,95.12
2023-03-19T08:58:54.492Z,94.67
2023-03-19T08:59:54.457Z,94.97
2023-03-19T09:00:54.454Z,95.07
2023-03-19T09:01:54.552Z,95.13
2023-03-19T09:02:54.444Z,94.73
2023-03-19T09:03:54.443Z,94.82
2023-03-19T09:04:54.538Z,95.13
2023-03-19T09:05:54.434Z,94.11
2023-03-19T09:06:54.468Z,93.40
2023-03-19T09:07:54.437Z,93.19
2023-03-19T09:08:54.432Z,93.70
2023-03-19T09:09:54.441Z,93.70
2023-03-19T09:10:54.474Z,92.74
2023-03-19T09:11:54.421Z,93.55
2023-03-19T09:12:54.413Z,93.15
2023-03-19T09:13:54.409Z,93.15
2023-03-19T09:14:54.425Z,93.66
2023-03-19T09:15:54.452Z,93.66
2023-03-19T09:16:54.413Z,93.35
2023-03-19T09:17:54.400Z,93.05
2023-03-19T09:18:54.394Z,92.02
2023-03-19T09:19:54.391Z,92.13
2023-03-19T09:20:54.419Z,92.02
2023-03-19T09:21:54.384Z,92.02
2023-03-19T09:22:54.384Z,92.02
2023-03-19T09:23:54.378Z,91.31
2023-03-19T09:24:54.374Z,91.41
2023-03-19T09:25:54.367Z,92.13
2023-03-19T09:26:54.369Z,91.61
2023-03-19T09:27:54.366Z,91.16
2023-03-19T09:28:54.363Z,91.78
2023-03-19T09:29:54.360Z,91.41
2023-03-19T09:30:54.456Z,91.57
2023-03-19T09:31:54.352Z,91.06
2023-03-19T09:32:54.444Z,90.80
2023-03-19T09:33:54.352Z,90.90
2023-03-19T09:34:54.345Z,90.45
2023-03-19T09:35:54.376Z,90.55
2023-03-19T09:36:54.339Z,90.25
2023-03-19T09:37:54.336Z,90.75
2023-03-19T09:38:54.334Z,90.96
2023-03-19T09:39:54.329Z,91.37
2023-03-19T09:40:54.325Z,91.74
2023-03-19T09:41:54.321Z,91.57
2023-03-19T09:42:54.471Z,92.04
2023-03-19T09:43:54.325Z,91.63
2023-03-19T09:44:54.315Z,92.08
2023-03-19T09:45:54.308Z,92.76
2023-03-19T09:46:54.457Z,93.26
2023-03-19T09:47:54.301Z,93.37
2023-03-19T09:48:54.302Z,92.86
2023-03-19T09:49:54.294Z,92.24
2023-03-19T09:50:54.295Z,91.83
2023-03-19T09:51:54.298Z,90.92
2023-03-19T09:52:54.298Z,91.28
2023-03-19T09:53:54.302Z,91.43
2023-03-19T09:54:54.289Z,91.94
2023-03-19T09:55:54.278Z,91.74
2023-03-19T09:56:54.283Z,91.63
2023-03-19T09:57:54.271Z,92.04
2023-03-19T09:58:54.273Z,91.53
2023-03-19T09:59:54.279Z,91.18
2023-03-19T10:00:54.274Z,91.08
2023-03-19T10:01:54.327Z,91.08
2023-03-19T10:02:54.281Z,91.39
2023-03-19T10:03:54.323Z,92.00
2023-03-19T10:04:54.257Z,91.49
2023-03-19T10:05:54.253Z,91.69
2023-03-19T10:06:54.253Z,91.79
2023-03-19T10:07:54.251Z,91.83
2023-03-19T10:08:54.253Z,91.49
2023-03-19T10:09:54.240Z,91.49
2023-03-19T10:10:54.236Z,93.02
2023-03-19T10:11:54.240Z,92.61
2023-03-19T10:12:54.234Z,91.94
2023-03-19T10:13:54.222Z,92.14
2023-03-19T10:14:54.221Z,92.00
2023-03-19T10:15:54.253Z,91.94
2023-03-19T10:16:54.230Z,91.94
2023-03-19T10:17:54.214Z,92.14
2023-03-19T10:18:54.714Z,92.04
2023-03-19T10:19:54.207Z,92.04
2023-03-19T10:20:54.206Z,90.41
2023-03-19T10:21:54.200Z,90.51
2023-03-19T10:22:54.198Z,91.08
2023-03-19T10:23:54.197Z,91.89
2023-03-19T10:24:54.188Z,91.74
2023-03-19T10:25:54.189Z,91.18
2023-03-19T10:26:54.189Z,91.08
2023-03-19T10:27:54.184Z,91.33
2023-03-19T10:28:54.181Z,92.00
2023-03-19T10:29:54.179Z,91.79
2023-03-19T10:30:55.527Z,91.83
2023-03-19T10:31:54.251Z,91.63
2023-03-19T10:32:54.287Z,91.22
2023-03-19T10:33:54.167Z,92.04
2023-03-19T10:34:54.195Z,91.12
2023-03-19T10:35:54.191Z,91.33
2023-03-19T10:36:54.159Z,91.12
2023-03-19T10:37:54.158Z,91.63
2023-03-19T10:38:54.166Z,91.08
2023-03-19T10:39:54.150Z,91.94
2023-03-19T10:40:54.150Z,91.94
2023-03-19T10:41:54.157Z,91.74
2023-03-19T10:42:54.150Z,91.83
2023-03-19T10:43:54.145Z,91.94
2023-03-19T10:44:54.143Z,91.74
2023-03-19T10:45:54.282Z,91.74
2023-03-19T10:46:54.136Z,91.83
2023-03-19T10:47:54.128Z,91.83
2023-03-19T10:48:54.123Z,91.12
2023-03-19T10:49:54.124Z,91.94
2023-03-19T10:50:54.145Z,92.04
2023-03-19T10:51:54.118Z,91.94
2023-03-19T10:52:54.128Z,91.63
2023-03-19T10:53:54.128Z,91.22
2023-03-19T10:54:55.285Z,90.92
2023-03-19T10:55:54.109Z,91.12
2023-03-19T10:56:54.102Z,91.33
2023-03-19T10:57:54.129Z,91.94
2023-03-19T10:58:54.097Z,91.22
2023-03-19T10:59:54.112Z,91.47
2023-03-19T11:00:54.142Z,91.33
2023-03-19T11:01:54.096Z,92.04
2023-03-19T11:02:54.095Z,91.94
2023-03-19T11:03:54.118Z,93.16
2023-03-19T11:04:54.077Z,93.57
2023-03-19T11:05:54.106Z,93.37
2023-03-19T11:06:54.099Z,93.16
2023-03-19T11:07:54.082Z,93.26
2023-03-19T11:08:54.065Z,93.67
2023-03-19T11:09:54.412Z,94.08
2023-03-19T11:10:54.062Z,94.29
2023-03-19T11:11:54.061Z,94.18
2023-03-19T11:12:54.057Z,95.00
2023-03-19T11:13:54.048Z,95.00
2023-03-19T11:14:54.046Z,94.90
2023-03-19T11:15:54.045Z,95.10
2023-03-19T11:16:54.095Z,95.51
2023-03-19T11:17:54.038Z,95.51
2023-03-19T11:18:54.036Z,95.45
2023-03-19T11:19:54.037Z,95.31
2023-03-19T11:20:54.028Z,95.81
2023-03-19T11:21:54.025Z,95.86
2023-03-19T11:22:54.045Z,96.12
2023-03-19T11:23:54.021Z,96.12
2023-03-19T11:24:54.017Z,96.02
2023-03-19T11:25:54.015Z,96.43
2023-03-19T11:26:54.013Z,96.12
2023-03-19T11:27:54.008Z,96.02
2023-03-19T11:28:54.001Z,96.02
2023-03-19T11:29:54.015Z,96.22
2023-03-19T11:30:54.005Z,96.43
2023-03-19T11:31:54.044Z,96.22
2023-03-19T11:32:54.095Z,96.73
2023-03-19T11:33:53.996Z,96.33
2023-03-19T11:34:54.068Z,96.43
2023-03-19T11:35:54.088Z,96.02
2023-03-19T11:36:53.980Z,96.02
2023-03-19T11:37:53.975Z,95.61
2023-03-19T11:38:53.998Z,96.22
2023-03-19T11:39:53.972Z,96.02
2023-03-19T11:40:53.968Z,96.33
2023-03-19T11:41:54.049Z,96.12
2023-03-19T11:42:53.982Z,95.51
2023-03-19T11:43:53.958Z,95.92
2023-03-19T11:44:53.958Z,96.12
2023-03-19T11:45:53.963Z,96.02
2023-03-19T11:46:53.952Z,96.02
2023-03-19T11:47:53.953Z,96.37
2023-03-19T11:48:53.948Z,95.92
2023-03-19T11:49:53.944Z,95.86
2023-03-19T11:50:53.939Z,96.27
2023-03-19T11:51:53.939Z,95.96
2023-03-19T11:52:53.933Z,96.02
2023-03-19T11:54:53.951Z,95.96
2023-03-19T11:55:53.938Z,95.76
2023-03-19T11:56:53.923Z,95.76
2023-03-19T11:57:53.919Z,96.11
2023-03-19T11:58:53.924Z,96.27
2023-03-19T11:59:53.916Z,96.22
2023-03-19T12:00:53.922Z,96.63
2023-03-19T12:01:53.909Z,97.24
2023-03-19T12:02:53.908Z,97.24
2023-03-19T12:03:53.938Z,96.94
2023-03-19T12:04:53.901Z,97.55
2023-03-19T12:05:53.896Z,97.34
2023-03-19T12:06:53.980Z,97.55
2023-03-19T12:07:53.892Z,97.65
2023-03-19T12:08:53.891Z,97.55
2023-03-19T12:09:53.891Z,97.86
2023-03-19T12:10:53.918Z,98.36
2023-03-19T12:11:53.889Z,98.57
2023-03-19T12:12:53.878Z,99.08
2023-03-19T12:13:53.878Z,98.77
2023-03-19T12:14:53.873Z,99.18
2023-03-19T12:15:53.897Z,98.77
2023-03-19T12:16:53.941Z,99.39
2023-03-19T12:17:53.863Z,99.39
2023-03-19T12:18:53.869Z,99.79
2023-03-19T12:19:53.860Z,99.84
2023-03-19T12:20:53.855Z,99.59
2023-03-19T12:21:53.856Z,99.74
2023-03-19T12:22:53.865Z,99.33
2023-03-19T12:23:53.852Z,99.43
2023-03-19T12:24:53.848Z,99.54
2023-03-19T12:25:53.839Z,99.99
2023-03-19T12:26:53.957Z,99.99
2023-03-19T12:27:53.834Z,99.99
2023-03-19T12:28:53.836Z,99.99
2023-03-19T12:29:53.844Z,99.99
2023-03-19T12:30:53.877Z,99.99
2023-03-19T12:31:53.819Z,99.99
2023-03-19T12:32:53.972Z,99.99
2023-03-19T12:33:53.812Z,99.99
2023-03-19T12:34:53.817Z,99.99
2023-03-19T12:35:53.826Z,99.99
2023-03-19T12:36:53.946Z,99.79
2023-03-19T12:37:53.799Z,99.99
2023-03-19T12:38:53.804Z,99.99
2023-03-19T12:39:53.794Z,99.99
2023-03-19T12:40:53.799Z,99.99
2023-03-19T12:41:53.791Z,99.99
2023-03-19T12:42:53.809Z,99.99
2023-03-19T12:43:53.780Z,99.99
2023-03-19T12:44:53.781Z,99.89
2023-03-19T12:45:53.783Z,99.89
2023-03-19T12:46:53.862Z,99.99
2023-03-19T12:47:53.776Z,99.89
2023-03-19T12:48:53.778Z,99.99
2023-03-19T12:49:53.771Z,99.99
2023-03-19T12:50:53.776Z,99.99
2023-03-19T12:51:53.782Z,99.99
2023-03-19T12:52:53.757Z,99.99
2023-03-19T12:53:53.766Z,99.99
2023-03-19T12:54:53.746Z,99.99
2023-03-19T12:55:53.754Z,99.99
2023-03-19T12:56:53.752Z,99.99
2023-03-19T12:57:53.744Z,99.99
2023-03-19T12:58:53.822Z,99.99
2023-03-19T12:59:53.740Z,99.99
2023-03-19T13:00:53.738Z,99.99
2023-03-19T13:01:53.840Z,99.99
2023-03-19T13:02:53.816Z,99.99
2023-03-19T13:03:53.727Z,99.99
2023-03-19T13:04:53.797Z,99.99
2023-03-19T13:05:53.718Z,99.99
2023-03-19T13:06:53.722Z,99.99
2023-03-19T13:07:53.722Z,99.99
2023-03-19T13:08:53.715Z,99.99